Haukur — OZ2119 — position and weather

sailwx.info

Track history (hours):
 
Tides and Currents Weather Stations Pressure Air Temp Water Temp Dewpoint Dewpoint Depression Visibility Wind Speed Wind Dir Waves Ship Positions

Haukur

Last reported at 2016-Jul-29 09:33 UTC. Time now 2016-Jul-29 10:09 UTC.
Position N 54°50' W 005°33'.

Length 75 m; draft 5.8 m.

Type: Cargo ship. MMSI: 231812000.

Date/timePositionNaut miles runAvg speedWind from/ knotsBaromVisibWave heightAir tempDewpointWater temp
2016-Jul-29 09:33N 54°50' W 005°33'8 8.1
2016-Jul-29 08:33N 54°57' W 005°40'9 8.3
2016-Jul-29 07:27N 55°05' W 005°48'8 9.1
2016-Jul-29 06:32N 55°12' W 005°56'1010.5
2016-Jul-29 05:33N 55°21' W 006°06'10 9.9
2016-Jul-29 04:33N 55°26' W 006°21'1010.4
2016-Jul-29 03:33N 55°33' W 006°33'1111.1
2016-Jul-29 02:33N 55°41' W 006°47'1010.1
2016-Jul-29 01:33N 55°48' W 007°00'  
2016-Jul-20 13:23N 62°37' W 009°01'8 9.1
2016-Jul-20 12:33N 62°36' W 008°45'9 9.0
2016-Jul-20 11:33N 62°34' W 008°26'9 8.6
2016-Jul-20 10:33N 62°33' W 008°07'8 7.8
2016-Jul-20 09:34N 62°32' W 007°51'8 7.7
2016-Jul-20 08:33N 62°31' W 007°34'8 8.0
2016-Jul-20 07:33N 62°30' W 007°17'9 9.0
2016-Jul-20 06:34N 62°28' W 006°58'10 9.6
2016-Jul-20 05:33N 62°26' W 006°37'10 9.9
2016-Jul-20 04:33N 62°25' W 006°17'9 9.2
2016-Jul-20 03:33N 62°22' W 005°57'9 8.6
2016-Jul-20 02:33N 62°20' W 005°40'8 8.3
2016-Jul-20 01:33N 62°17' W 005°23'8 8.2
2016-Jul-20 00:33N 62°15' W 005°06'8 8.0
2016-Jul-19 23:33N 62°13' W 004°49'8 8.1
2016-Jul-19 22:33N 62°11' W 004°32'8 7.9
2016-Jul-19 21:33N 62°08' W 004°16'  
Track history (hours):
 
Tides and Currents Weather Stations Pressure Air Temp Water Temp Dewpoint Dewpoint Depression Visibility Wind Speed Wind Dir Waves Ship Positions

Haukur

Last reported at 2016-Jul-29 09:33 UTC. Time now 2016-Jul-29 10:09 UTC.
Position N 54°50' W 005°33'.

Length 75 m; draft 5.8 m.

Type: Cargo ship. MMSI: 231812000.

Date/timePositionNaut miles runAvg speedWind from/ knotsBaromVisibWave heightAir tempDewpointWater temp
2016-Jul-29 09:33N 54°50' W 005°33'8 8.1
2016-Jul-29 08:33N 54°57' W 005°40'9 8.3
2016-Jul-29 07:27N 55°05' W 005°48'8 9.1
2016-Jul-29 06:32N 55°12' W 005°56'1010.5
2016-Jul-29 05:33N 55°21' W 006°06'10 9.9
2016-Jul-29 04:33N 55°26' W 006°21'1010.4
2016-Jul-29 03:33N 55°33' W 006°33'1111.1
2016-Jul-29 02:33N 55°41' W 006°47'1010.1
2016-Jul-29 01:33N 55°48' W 007°00'  
2016-Jul-20 13:23N 62°37' W 009°01'8 9.1
2016-Jul-20 12:33N 62°36' W 008°45'9 9.0
2016-Jul-20 11:33N 62°34' W 008°26'9 8.6
2016-Jul-20 10:33N 62°33' W 008°07'8 7.8
2016-Jul-20 09:34N 62°32' W 007°51'8 7.7
2016-Jul-20 08:33N 62°31' W 007°34'8 8.0
2016-Jul-20 07:33N 62°30' W 007°17'9 9.0
2016-Jul-20 06:34N 62°28' W 006°58'10 9.6
2016-Jul-20 05:33N 62°26' W 006°37'10 9.9
2016-Jul-20 04:33N 62°25' W 006°17'9 9.2
2016-Jul-20 03:33N 62°22' W 005°57'9 8.6
2016-Jul-20 02:33N 62°20' W 005°40'8 8.3
2016-Jul-20 01:33N 62°17' W 005°23'8 8.2
2016-Jul-20 00:33N 62°15' W 005°06'8 8.0
2016-Jul-19 23:33N 62°13' W 004°49'8 8.1
2016-Jul-19 22:33N 62°11' W 004°32'8 7.9
2016-Jul-19 21:33N 62°08' W 004°16'  

Dump ship's entire track history